Time;durP1;ratioP1;P1;durP2;ratioP2;P2;SDS_P1;SDS_P2;PMS_P1;PMS_P2;Temp;Humidity;BMP_temperature;BMP_pressure;BME280_temperature;BME280_humidity;BME280_pressure;Samples;Min_cycle;Max_cycle;Signal;HPM_P1;HPM_P2
2023/09/03 00:03:03;;;;;;;11.07;10.07;;;14.60;99.90;;;;;;8259648;28;20195;-61
2023/09/03 00:07:04;;;;;;;16.07;12.93;;;14.60;99.90;;;;;;8243002;28;20204;-62
2023/09/03 00:11:05;;;;;;;12.20;11.07;;;14.70;99.90;;;;;;8238424;28;20285;-62
2023/09/03 00:15:06;;;;;;;12.50;11.30;;;14.70;99.90;;;;;;8247554;28;20498;-65
2023/09/03 00:19:07;;;;;;;12.97;11.20;;;14.70;99.90;;;;;;8254216;28;20191;-62
2023/09/03 00:23:09;;;;;;;13.03;11.73;;;14.70;99.90;;;;;;8238038;28;20207;-62
2023/09/03 00:27:10;;;;;;;12.57;11.23;;;14.70;99.90;;;;;;8255762;28;20246;-62
2023/09/03 00:31:10;;;;;;;12.90;11.60;;;14.70;99.90;;;;;;8258827;28;20219;-62
2023/09/03 00:35:11;;;;;;;12.37;11.17;;;14.70;99.90;;;;;;8251183;28;20186;-64
2023/09/03 00:39:12;;;;;;;11.20;10.10;;;14.70;99.90;;;;;;8244991;28;20222;-61
2023/09/03 00:43:13;;;;;;;12.93;11.63;;;14.70;99.90;;;;;;8244407;28;20199;-62
2023/09/03 00:47:14;;;;;;;11.90;10.70;;;14.80;99.90;;;;;;8245364;28;20245;-62
2023/09/03 00:51:15;;;;;;;12.50;11.27;;;14.80;99.90;;;;;;8243363;28;20303;-62
2023/09/03 00:55:16;;;;;;;13.77;12.23;;;14.80;99.90;;;;;;8259216;28;20280;-62
2023/09/03 00:59:19;;;;;;;12.70;11.50;;;14.80;99.90;;;;;;8262353;28;20211;-62
2023/09/03 01:03:21;;;;;;;12.47;11.23;;;14.80;99.90;;;;;;8255127;28;20294;-65
2023/09/03 01:07:22;;;;;;;11.77;10.60;;;14.80;99.90;;;;;;8239094;28;20192;-65
2023/09/03 01:11:40;;;;;;;12.73;10.83;;;14.80;99.90;;;;;;8254841;28;20298;-62
2023/09/03 01:15:47;;;;;;;11.77;10.57;;;14.90;99.90;;;;;;8256177;28;20191;-61
2023/09/03 01:20:00;;;;;;;12.03;10.83;;;14.90;99.90;;;;;;8244239;28;20194;-61
2023/09/03 01:24:43;;;;;;;12.50;11.20;;;14.80;99.90;;;;;;8257723;28;20196;-65
2023/09/03 01:28:45;;;;;;;12.60;11.30;;;14.80;99.90;;;;;;8258225;28;20204;-61
2023/09/03 01:32:47;;;;;;;12.70;11.40;;;14.80;99.90;;;;;;8243403;28;20222;-62
2023/09/03 01:36:48;;;;;;;13.17;11.87;;;14.80;99.90;;;;;;8253994;28;20211;-64
2023/09/03 01:40:50;;;;;;;11.83;10.63;;;14.80;99.90;;;;;;8259701;28;20242;-62
2023/09/03 01:44:54;;;;;;;11.50;10.50;;;14.80;99.90;;;;;;8264906;28;20199;-63
2023/09/03 01:49:13;;;;;;;10.50;9.50;;;14.80;99.90;;;;;;8260750;28;20207;-61
2023/09/03 01:53:17;;;;;;;12.63;11.40;;;14.80;99.90;;;;;;8248092;28;20216;-62
2023/09/03 01:57:35;;;;;;;11.40;10.20;;;14.80;99.90;;;;;;8260369;28;20523;-62
2023/09/03 02:01:36;;;;;;;11.97;10.87;;;14.90;99.90;;;;;;8263904;28;20209;-66
2023/09/03 02:05:37;;;;;;;12.43;11.17;;;14.90;99.90;;;;;;8260125;28;20230;-63
2023/09/03 02:09:38;;;;;;;12.80;11.43;;;14.90;99.90;;;;;;8250813;28;20353;-64
2023/09/03 02:13:41;;;;;;;11.63;10.50;;;15.00;99.90;;;;;;8264921;28;20255;-62
2023/09/03 02:17:42;;;;;;;11.87;10.60;;;15.00;99.90;;;;;;8260750;28;20211;-63
2023/09/03 02:21:42;;;;;;;10.57;9.57;;;15.00;99.90;;;;;;8248149;28;20217;-63
2023/09/03 02:25:43;;;;;;;9.37;8.47;;;15.00;99.90;;;;;;8250107;28;20208;-64
2023/09/03 02:29:44;;;;;;;12.43;10.43;;;15.00;99.90;;;;;;8250791;28;20203;-62
2023/09/03 02:33:44;;;;;;;11.33;10.20;;;14.90;99.90;;;;;;8257316;28;20188;-61
2023/09/03 02:37:45;;;;;;;11.70;10.53;;;14.80;99.90;;;;;;8244716;28;20192;-63
2023/09/03 02:41:46;;;;;;;12.90;11.60;;;14.80;99.90;;;;;;8249750;28;20242;-62
2023/09/03 02:45:47;;;;;;;11.47;10.37;;;14.70;99.90;;;;;;8255509;28;20202;-63
2023/09/03 02:49:48;;;;;;;11.17;10.07;;;14.70;99.90;;;;;;8243173;28;20194;-62
2023/09/03 02:53:51;;;;;;;10.57;9.57;;;14.70;99.90;;;;;;8267907;28;20199;-63
2023/09/03 02:57:52;;;;;;;9.73;8.80;;;14.60;99.90;;;;;;8244449;28;20272;-63
2023/09/03 03:01:52;;;;;;;10.67;9.63;;;14.60;99.90;;;;;;8259725;28;20227;-65
2023/09/03 03:05:53;;;;;;;11.47;10.37;;;14.60;99.90;;;;;;8249905;28;20195;-64
2023/09/03 03:09:54;;;;;;;11.90;10.67;;;14.50;99.90;;;;;;8249645;28;20219;-63
2023/09/03 03:13:55;;;;;;;14.50;12.13;;;14.50;99.90;;;;;;8244433;28;20227;-60
2023/09/03 03:17:55;;;;;;;12.20;10.47;;;14.50;99.90;;;;;;8242509;28;20278;-64
2023/09/03 03:21:56;;;;;;;10.77;9.70;;;14.50;99.90;;;;;;8243635;28;20251;-64
2023/09/03 03:25:57;;;;;;;12.60;11.30;;;14.50;99.90;;;;;;8258015;28;20198;-65
2023/09/03 03:29:58;;;;;;;11.67;10.53;;;14.40;99.90;;;;;;8245314;28;20259;-65
2023/09/03 03:33:58;;;;;;;10.47;9.43;;;14.40;99.90;;;;;;8241824;28;20276;-65
2023/09/03 03:37:59;;;;;;;10.20;9.20;;;14.40;99.90;;;;;;8256048;28;20494;-65
2023/09/03 03:42:00;;;;;;;10.03;9.00;;;14.30;99.90;;;;;;8256476;28;20489;-65
2023/09/03 03:46:01;;;;;;;9.93;8.93;;;14.30;99.90;;;;;;8249070;28;20194;-64
2023/09/03 03:50:01;;;;;;;10.10;9.17;;;14.20;99.90;;;;;;8255538;28;20271;-64
2023/09/03 03:54:04;;;;;;;11.13;10.10;;;14.20;99.90;;;;;;8246727;28;20192;-65
2023/09/03 03:58:05;;;;;;;11.50;10.43;;;14.10;99.90;;;;;;8249721;28;20200;-65
2023/09/03 04:02:06;;;;;;;11.67;10.57;;;14.10;99.90;;;;;;8241572;28;20203;-64
2023/09/03 04:06:07;;;;;;;10.40;9.40;;;14.00;99.90;;;;;;8257084;28;20242;-64
2023/09/03 04:10:08;;;;;;;10.43;9.40;;;13.90;99.90;;;;;;8243792;28;20217;-65
2023/09/03 04:14:09;;;;;;;10.57;9.57;;;13.90;99.90;;;;;;8247686;28;20242;-64
2023/09/03 04:18:09;;;;;;;9.97;9.00;;;13.90;99.90;;;;;;8245228;28;20214;-64
2023/09/03 04:22:10;;;;;;;10.13;9.23;;;13.90;99.90;;;;;;8254442;28;20238;-65
2023/09/03 04:26:11;;;;;;;9.90;9.00;;;13.80;99.90;;;;;;8256333;28;20210;-65
2023/09/03 04:30:12;;;;;;;10.60;9.60;;;13.80;99.90;;;;;;8256172;28;20218;-65
2023/09/03 04:34:13;;;;;;;11.67;10.53;;;13.80;99.90;;;;;;8242410;28;20569;-61
2023/09/03 04:38:14;;;;;;;11.13;10.13;;;13.80;99.90;;;;;;8255442;28;20179;-62
2023/09/03 04:42:15;;;;;;;11.10;10.07;;;13.90;99.90;;;;;;8241381;28;20454;-63
2023/09/03 04:46:15;;;;;;;10.03;9.13;;;14.00;99.90;;;;;;8240348;28;20200;-64
2023/09/03 04:50:16;;;;;;;10.43;9.50;;;14.10;99.90;;;;;;8257354;28;20218;-61
2023/09/03 04:54:17;;;;;;;11.37;9.97;;;14.20;99.90;;;;;;8254440;28;20196;-62
2023/09/03 04:58:18;;;;;;;10.83;9.73;;;14.30;99.90;;;;;;8253713;28;20189;-65
2023/09/03 05:02:19;;;;;;;13.13;11.83;;;14.30;99.90;;;;;;8241313;28;20187;-63
2023/09/03 05:06:19;;;;;;;13.67;12.23;;;14.50;99.90;;;;;;8257396;28;20685;-61
2023/09/03 05:10:20;;;;;;;15.50;13.90;;;14.60;99.90;;;;;;8244421;28;20301;-64
2023/09/03 05:14:21;;;;;;;14.00;12.70;;;14.70;99.90;;;;;;8233713;28;20306;-64
2023/09/03 05:18:22;;;;;;;11.80;10.70;;;14.80;99.90;;;;;;8253614;28;20326;-62
2023/09/03 05:22:23;;;;;;;14.93;13.43;;;14.90;99.90;;;;;;8243520;28;20196;-62
2023/09/03 05:26:23;;;;;;;13.70;12.40;;;15.00;99.90;;;;;;8252173;28;20235;-64
2023/09/03 05:30:25;;;;;;;14.83;12.90;;;15.10;99.90;;;;;;8238764;28;20219;-64
2023/09/03 05:34:27;;;;;;;14.77;13.30;;;15.20;99.90;;;;;;8240757;28;20195;-64
2023/09/03 05:38:28;;;;;;;13.87;12.47;;;15.30;99.90;;;;;;8252202;28;20191;-64
2023/09/03 05:42:29;;;;;;;13.17;11.83;;;15.50;99.90;;;;;;8237712;28;20202;-62
2023/09/03 05:46:30;;;;;;;14.37;13.07;;;15.60;99.90;;;;;;8243348;28;20325;-62
2023/09/03 05:50:31;;;;;;;13.70;11.90;;;15.70;99.90;;;;;;8238319;28;20356;-65
2023/09/03 05:54:31;;;;;;;12.63;11.43;;;15.70;99.90;;;;;;8241878;28;20274;-62
2023/09/03 05:58:33;;;;;;;13.13;11.80;;;15.70;99.90;;;;;;8249889;28;20188;-62
2023/09/03 06:02:34;;;;;;;13.80;12.33;;;15.70;99.90;;;;;;8254081;28;20195;-62
2023/09/03 06:06:39;;;;;;;12.47;11.27;;;15.80;99.90;;;;;;8256624;28;20195;-65
2023/09/03 06:10:41;;;;;;;11.50;10.40;;;16.00;99.90;;;;;;8253895;28;20215;-64
2023/09/03 06:14:42;;;;;;;13.17;11.60;;;16.10;99.90;;;;;;8238445;28;20241;-64
2023/09/03 06:18:42;;;;;;;12.40;11.10;;;16.20;99.90;;;;;;8254362;28;20369;-62
2023/09/03 06:22:43;;;;;;;11.37;10.37;;;16.30;99.90;;;;;;8253638;28;20227;-63
2023/09/03 06:26:44;;;;;;;11.03;10.03;;;16.50;99.90;;;;;;8248164;28;20231;-62
2023/09/03 06:30:44;;;;;;;10.53;9.60;;;16.60;99.90;;;;;;8260034;28;20294;-63
2023/09/03 06:34:45;;;;;;;11.30;10.10;;;16.90;99.90;;;;;;8263204;28;20187;-62
2023/09/03 06:38:46;;;;;;;10.50;9.60;;;17.00;99.90;;;;;;8238413;28;20207;-62
2023/09/03 06:42:47;;;;;;;10.00;9.10;;;17.20;99.90;;;;;;8248917;28;20191;-65
2023/09/03 06:46:47;;;;;;;10.93;9.93;;;17.30;99.90;;;;;;8249688;28;20195;-63
2023/09/03 06:50:48;;;;;;;10.30;9.40;;;17.50;99.90;;;;;;8257025;28;20555;-65
2023/09/03 06:54:49;;;;;;;11.10;10.13;;;17.60;99.90;;;;;;8256992;28;20254;-64
2023/09/03 06:58:50;;;;;;;11.00;10.00;;;17.60;99.90;;;;;;8256674;28;20183;-66
2023/09/03 07:02:50;;;;;;;9.90;9.00;;;17.50;99.90;;;;;;8246859;28;20187;-65
2023/09/03 07:06:51;;;;;;;10.90;9.90;;;17.60;99.90;;;;;;8254739;28;20199;-64
2023/09/03 07:10:59;;;;;;;9.43;8.53;;;17.70;99.90;;;;;;8256607;28;20216;-64
2023/09/03 07:14:59;;;;;;;8.90;8.07;;;17.90;99.90;;;;;;8241659;28;20199;-65
2023/09/03 07:19:00;;;;;;;9.33;8.43;;;18.10;99.90;;;;;;8252874;28;20192;-65
2023/09/03 07:23:01;;;;;;;9.10;8.30;;;18.10;99.90;;;;;;8258754;28;20271;-62
2023/09/03 07:27:02;;;;;;;9.63;8.73;;;18.20;99.90;;;;;;8239145;28;20203;-64
2023/09/03 07:31:03;;;;;;;10.63;9.33;;;18.10;99.90;;;;;;8241810;28;20211;-67
2023/09/03 07:35:07;;;;;;;9.03;8.23;;;18.10;99.90;;;;;;8258444;28;20186;-64
2023/09/03 07:39:11;;;;;;;9.80;8.20;;;18.00;99.90;;;;;;8259305;28;20188;-64
2023/09/03 07:43:11;;;;;;;8.00;7.33;;;18.00;99.90;;;;;;8250051;28;20268;-64
2023/09/03 07:47:12;;;;;;;8.70;7.40;;;18.20;99.90;;;;;;8257992;28;20195;-65
2023/09/03 07:51:15;;;;;;;7.70;7.00;;;18.40;99.90;;;;;;8259383;28;20211;-64
2023/09/03 07:55:16;;;;;;;7.77;6.97;;;18.50;99.90;;;;;;8235610;28;20200;-64
2023/09/03 07:59:16;;;;;;;7.07;6.37;;;18.70;99.90;;;;;;8269889;28;20199;-65
2023/09/03 08:03:17;;;;;;;7.00;6.30;;;18.80;99.90;;;;;;8256968;28;20192;-64
2023/09/03 08:07:18;;;;;;;6.00;5.50;;;19.20;99.90;;;;;;8258091;28;20268;-64
2023/09/03 08:11:19;;;;;;;6.60;5.83;;;19.50;99.90;;;;;;8251763;28;20212;-65
2023/09/03 08:15:20;;;;;;;6.87;5.80;;;19.70;99.90;;;;;;8254458;28;20191;-64
2023/09/03 08:19:20;;;;;;;11.20;5.47;;;19.90;95.50;;;;;;8252177;28;20191;-62
2023/09/03 08:23:21;;;;;;;6.53;5.47;;;19.90;58.60;;;;;;8240580;28;20203;-64
2023/09/03 08:27:22;;;;;;;5.13;4.10;;;19.50;21.90;;;;;;8243708;28;20187;-66
2023/09/03 08:31:23;;;;;;;4.83;4.30;;;19.40;15.10;;;;;;8238484;28;20211;-65
2023/09/03 08:35:23;;;;;;;4.73;4.30;;;19.70;17.80;;;;;;8254527;28;20251;-66
2023/09/03 08:39:24;;;;;;;6.20;4.10;;;20.30;21.90;;;;;;8245903;28;20198;-65
2023/09/03 08:43:27;;;;;;;5.47;4.30;;;20.60;1.00;;;;;;8255134;28;20191;-66
2023/09/03 08:47:28;;;;;;;3.33;3.10;;;20.80;1.00;;;;;;8255601;28;20311;-64
2023/09/03 08:51:31;;;;;;;5.47;3.73;;;20.70;1.00;;;;;;8244250;28;20269;-64
2023/09/03 08:55:34;;;;;;;3.90;3.37;;;20.50;1.00;;;;;;8248685;28;20245;-64
2023/09/03 08:59:35;;;;;;;4.57;3.50;;;20.70;1.00;;;;;;8247114;28;20192;-64
2023/09/03 09:03:36;;;;;;;5.43;3.40;;;20.80;1.00;;;;;;8256465;28;20198;-64
2023/09/03 09:07:38;;;;;;;4.70;3.47;;;20.90;1.00;;;;;;8247741;28;20246;-64
2023/09/03 09:11:43;;;;;;;5.30;3.43;;;21.10;1.00;;;;;;8255100;28;20254;-62
2023/09/03 09:15:44;;;;;;;4.50;3.20;;;21.20;1.00;;;;;;8252917;28;20302;-65
2023/09/03 09:19:44;;;;;;;4.53;3.40;;;21.60;1.00;;;;;;8256345;28;20187;-62
2023/09/03 09:23:46;;;;;;;2.43;2.23;;;22.10;1.00;;;;;;8242502;28;20256;-64
2023/09/03 09:27:48;;;;;;;5.40;1.83;;;22.10;1.00;;;;;;8241444;28;20248;-63
2023/09/03 09:31:49;;;;;;;2.43;2.13;;;22.50;1.00;;;;;;8253321;28;20271;-64
2023/09/03 09:35:50;;;;;;;2.93;2.23;;;22.20;1.00;;;;;;8250720;28;20202;-61
2023/09/03 09:39:51;;;;;;;2.63;1.70;;;22.30;1.00;;;;;;8254599;28;20191;-63
2023/09/03 09:43:52;;;;;;;3.53;2.00;;;22.40;1.00;;;;;;8245767;28;20222;-64
2023/09/03 09:48:09;;;;;;;2.40;1.83;;;22.10;1.00;;;;;;8252536;28;20259;-64
2023/09/03 09:52:12;;;;;;;2.77;2.03;;;22.10;1.00;;;;;;8238314;28;20301;-61
2023/09/03 09:56:18;;;;;;;3.27;1.53;;;22.30;1.00;;;;;;8253258;28;20191;-65
2023/09/03 10:00:38;;;;;;;3.10;1.53;;;22.30;1.00;;;;;;8257324;28;20221;-61
2023/09/03 10:04:44;;;;;;;2.60;1.70;;;22.00;1.00;;;;;;8251052;28;20192;-64
2023/09/03 10:08:47;;;;;;;2.67;1.53;;;21.80;1.00;;;;;;8255915;28;20187;-63
2023/09/03 10:12:48;;;;;;;2.10;1.80;;;21.70;1.00;;;;;;8257876;28;20229;-66
2023/09/03 10:16:52;;;;;;;2.60;1.73;;;21.80;1.00;;;;;;8242386;28;20624;-64
2023/09/03 10:20:55;;;;;;;2.37;1.60;;;21.90;1.00;;;;;;8257541;28;20199;-62
2023/09/03 10:25:27;;;;;;;2.40;1.90;;;22.00;1.00;;;;;;8244560;28;20286;-63
2023/09/03 10:29:31;;;;;;;4.27;2.20;;;22.10;1.00;;;;;;8244246;28;20214;-64
2023/09/03 10:33:33;;;;;;;2.97;2.50;;;22.10;1.00;;;;;;8248547;28;20655;-61
2023/09/03 10:37:39;;;;;;;2.77;2.33;;;22.10;1.00;;;;;;8247890;28;20186;-62
2023/09/03 10:41:40;;;;;;;2.53;2.00;;;21.80;1.00;;;;;;8260097;28;20310;-64
2023/09/03 10:46:04;;;;;;;2.57;2.10;;;22.10;1.00;;;;;;8250267;28;20199;-63
2023/09/03 10:50:05;;;;;;;3.07;2.10;;;22.20;1.00;;;;;;8241843;28;20203;-65
2023/09/03 10:54:17;;;;;;;5.03;2.43;;;22.30;1.00;;;;;;8247356;28;20211;-63
2023/09/03 10:58:23;;;;;;;3.90;2.57;;;22.80;1.00;;;;;;8260799;28;20188;-65
2023/09/03 11:02:25;;;;;;;3.00;2.33;;;22.70;1.00;;;;;;8258565;28;20199;-62
2023/09/03 11:06:31;;;;;;;3.13;2.40;;;22.90;1.00;;;;;;8256214;28;20195;-64
2023/09/03 11:10:38;;;;;;;2.97;2.33;;;22.80;1.00;;;;;;8257961;28;20306;-65
2023/09/03 11:14:41;;;;;;;5.90;2.37;;;22.60;1.00;;;;;;8248175;28;20191;-66
2023/09/03 11:18:49;;;;;;;2.93;2.40;;;22.40;1.00;;;;;;8262746;28;20195;-65
2023/09/03 11:22:51;;;;;;;5.30;2.57;;;22.30;1.00;;;;;;8251067;28;20202;-64
2023/09/03 11:27:04;;;;;;;3.37;2.67;;;22.20;1.00;;;;;;8247547;28;20306;-65
2023/09/03 11:31:05;;;;;;;4.60;2.33;;;22.40;1.00;;;;;;8256440;28;20216;-65
2023/09/03 11:35:06;;;;;;;3.67;2.60;;;22.70;1.00;;;;;;8250064;28;20207;-64
2023/09/03 11:39:15;;;;;;;4.17;2.50;;;22.50;1.00;;;;;;8251229;28;20223;-64
2023/09/03 11:43:16;;;;;;;5.20;2.30;;;22.40;1.00;;;;;;8251439;28;20195;-60
2023/09/03 11:47:16;;;;;;;3.37;2.40;;;22.10;1.00;;;;;;8245131;28;20192;-65
2023/09/03 11:51:30;;;;;;;2.50;1.80;;;22.20;1.00;;;;;;8244306;28;20211;-65
2023/09/03 11:55:37;;;;;;;2.70;2.10;;;22.40;1.00;;;;;;8258551;28;20188;-63
2023/09/03 11:59:39;;;;;;;7.77;2.80;;;22.50;1.00;;;;;;8247415;28;20246;-62
2023/09/03 12:03:41;;;;;;;2.63;2.17;;;22.30;1.00;;;;;;8238060;28;20196;-65
2023/09/03 12:07:42;;;;;;;3.43;1.97;;;22.20;1.00;;;;;;8259260;28;20198;-63
2023/09/03 12:11:43;;;;;;;3.30;1.87;;;22.10;1.00;;;;;;8255484;28;20318;-64
2023/09/03 12:15:44;;;;;;;3.10;2.00;;;22.30;1.00;;;;;;8260007;28;20223;-65
2023/09/03 12:19:45;;;;;;;3.57;1.93;;;22.40;1.00;;;;;;8238541;28;20191;-62
2023/09/03 12:23:46;;;;;;;2.97;1.60;;;22.40;1.00;;;;;;8257336;28;20257;-64
2023/09/03 12:27:47;;;;;;;3.33;1.90;;;22.50;1.00;;;;;;8246854;28;20192;-63
2023/09/03 12:31:48;;;;;;;2.63;1.80;;;22.50;1.00;;;;;;8258534;28;20212;-61
2023/09/03 12:36:08;;;;;;;2.43;1.90;;;22.70;1.00;;;;;;8246211;28;20218;-65
2023/09/03 12:40:10;;;;;;;2.20;1.60;;;22.60;1.00;;;;;;8256176;28;20270;-64
2023/09/03 12:44:11;;;;;;;2.93;1.67;;;22.70;1.00;;;;;;8256971;28;20225;-64
2023/09/03 12:48:11;;;;;;;2.67;1.80;;;22.70;1.00;;;;;;8259532;28;20329;-62
2023/09/03 12:52:12;;;;;;;4.83;2.00;;;22.70;1.00;;;;;;8249098;28;20218;-61
2023/09/03 12:56:14;;;;;;;2.97;1.50;;;22.40;1.00;;;;;;8254278;28;20194;-63
2023/09/03 13:00:15;;;;;;;2.50;1.80;;;22.30;1.00;;;;;;8252911;28;20184;-61
2023/09/03 13:04:15;;;;;;;4.93;1.90;;;22.20;1.00;;;;;;8254081;28;20488;-63
2023/09/03 13:08:16;;;;;;;3.10;1.90;;;22.20;1.00;;;;;;8257047;28;20187;-65
2023/09/03 13:12:17;;;;;;;5.33;2.03;;;22.20;1.00;;;;;;8248039;28;20210;-63
2023/09/03 13:16:22;;;;;;;2.90;2.10;;;22.40;1.00;;;;;;8257872;28;20207;-65
2023/09/03 13:20:23;;;;;;;4.30;2.20;;;22.40;1.00;;;;;;8241608;28;20669;-65
2023/09/03 13:24:24;;;;;;;2.43;1.73;;;22.30;1.00;;;;;;8246279;28;20191;-63
2023/09/03 13:28:25;;;;;;;2.93;2.20;;;22.20;1.00;;;;;;8239295;28;20195;-65
2023/09/03 13:32:26;;;;;;;3.23;1.73;;;21.90;1.00;;;;;;8257097;28;20223;-64
2023/09/03 13:36:27;;;;;;;3.03;2.20;;;21.80;1.00;;;;;;8250095;28;20195;-65
2023/09/03 13:40:28;;;;;;;3.60;1.93;;;21.70;1.00;;;;;;8247078;28;20335;-61
2023/09/03 13:44:28;;;;;;;2.77;2.33;;;21.70;1.00;;;;;;8261093;28;20195;-67
2023/09/03 13:48:29;;;;;;;2.90;2.00;;;21.90;1.00;;;;;;8252584;28;20612;-63
2023/09/03 13:52:30;;;;;;;3.13;2.30;;;21.80;1.00;;;;;;8248517;28;20602;-64
2023/09/03 13:56:32;;;;;;;2.60;2.20;;;21.80;1.00;;;;;;8252701;28;20191;-63
2023/09/03 14:00:33;;;;;;;3.43;2.40;;;21.70;1.00;;;;;;8261629;28;20192;-62
2023/09/03 14:04:33;;;;;;;4.90;2.90;;;21.60;1.00;;;;;;8266308;28;20203;-62
2023/09/03 14:08:35;;;;;;;3.57;2.30;;;21.60;1.00;;;;;;8261263;28;20275;-65
2023/09/03 14:12:35;;;;;;;3.03;2.57;;;21.50;1.00;;;;;;8248688;28;20740;-62
2023/09/03 14:16:37;;;;;;;2.93;2.60;;;21.30;1.00;;;;;;8262446;28;20194;-62
2023/09/03 14:20:38;;;;;;;3.80;2.50;;;21.00;1.00;;;;;;8248237;28;20473;-62
2023/09/03 14:24:39;;;;;;;3.47;2.70;;;20.80;1.00;;;;;;8253866;28;20291;-63
2023/09/03 14:28:39;;;;;;;4.23;2.53;;;20.80;1.00;;;;;;8259262;28;20331;-64
2023/09/03 14:32:40;;;;;;;4.23;2.87;;;20.80;1.00;;;;;;8258335;28;20212;-64
2023/09/03 14:36:41;;;;;;;5.40;2.67;;;20.90;1.00;;;;;;8247766;28;20188;-61
2023/09/03 14:40:51;;;;;;;4.90;2.77;;;20.90;1.00;;;;;;8243261;28;20206;-63
2023/09/03 14:44:52;;;;;;;4.30;2.80;;;20.80;1.00;;;;;;8259127;28;20191;-66
2023/09/03 14:48:53;;;;;;;4.13;2.67;;;20.80;1.00;;;;;;8246133;28;20192;-63
2023/09/03 14:52:54;;;;;;;2.43;2.23;;;20.70;1.00;;;;;;8247480;28;20215;-65
2023/09/03 14:56:55;;;;;;;5.17;2.50;;;20.70;1.00;;;;;;8250022;28;20192;-62
2023/09/03 15:00:57;;;;;;;4.17;2.10;;;20.80;1.00;;;;;;8258781;28;20247;-65
2023/09/03 15:04:58;;;;;;;3.17;2.43;;;20.90;1.00;;;;;;8247183;28;20196;-61
2023/09/03 15:08:59;;;;;;;3.50;2.70;;;20.90;1.00;;;;;;8255380;28;20297;-63
2023/09/03 15:12:59;;;;;;;2.93;1.80;;;21.00;1.00;;;;;;8254438;28;20215;-62
2023/09/03 15:17:00;;;;;;;3.53;2.17;;;20.90;1.00;;;;;;8259783;28;20201;-66
2023/09/03 15:21:01;;;;;;;3.83;1.90;;;20.60;1.00;;;;;;8258848;28;20196;-64
2023/09/03 15:25:02;;;;;;;2.30;1.80;;;20.40;1.00;;;;;;8261694;28;20203;-63
2023/09/03 15:29:04;;;;;;;2.63;1.80;;;20.30;1.00;;;;;;8256147;28;20266;-63
2023/09/03 15:33:08;;;;;;;2.40;1.70;;;20.30;1.00;;;;;;8250613;28;20222;-62
2023/09/03 15:37:09;;;;;;;1.50;1.30;;;20.30;1.00;;;;;;8246213;28;20187;-65
2023/09/03 15:41:10;;;;;;;4.37;1.37;;;20.20;1.00;;;;;;8256376;28;21346;-61
2023/09/03 15:45:11;;;;;;;1.93;1.57;;;20.30;1.00;;;;;;8251526;28;20287;-64
2023/09/03 15:49:12;;;;;;;1.97;1.47;;;20.30;1.00;;;;;;8258935;28;20201;-62
2023/09/03 15:53:13;;;;;;;1.80;1.40;;;20.20;1.00;;;;;;8256534;28;20215;-63
2023/09/03 15:57:14;;;;;;;2.53;1.60;;;20.00;1.00;;;;;;8257419;28;20307;-64
2023/09/03 16:01:15;;;;;;;3.47;1.60;;;19.80;1.00;;;;;;8257920;28;20186;-62
2023/09/03 16:05:16;;;;;;;1.80;1.43;;;19.60;1.00;;;;;;8259827;28;20386;-63
2023/09/03 16:09:17;;;;;;;4.43;1.40;;;19.50;1.00;;;;;;8247314;28;20693;-62
2023/09/03 16:13:19;;;;;;;2.13;1.50;;;19.40;1.00;;;;;;8255530;28;20261;-65
2023/09/03 16:17:20;;;;;;;2.00;1.47;;;19.30;1.00;;;;;;8253678;28;20187;-63
2023/09/03 16:21:21;;;;;;;1.57;1.23;;;19.30;1.00;;;;;;8253970;28;20432;-62
2023/09/03 16:25:22;;;;;;;3.37;1.50;;;19.20;1.00;;;;;;8253287;28;20199;-62
2023/09/03 16:29:23;;;;;;;3.23;1.20;;;19.10;1.00;;;;;;8254394;28;20191;-62
2023/09/03 16:33:24;;;;;;;3.70;1.80;;;19.00;1.00;;;;;;8255229;28;20238;-63
2023/09/03 16:37:25;;;;;;;2.70;1.50;;;18.90;1.00;;;;;;8255852;28;20194;-63
2023/09/03 16:41:26;;;;;;;2.60;1.50;;;18.70;1.00;;;;;;8255110;28;20207;-61
2023/09/03 16:45:27;;;;;;;3.63;1.10;;;18.60;1.00;;;;;;8242840;28;20202;-62
2023/09/03 16:49:28;;;;;;;1.30;1.20;;;18.50;1.00;;;;;;8246631;28;20215;-63
2023/09/03 16:53:28;;;;;;;4.83;1.60;;;18.40;1.00;;;;;;8240221;28;20211;-63
2023/09/03 16:57:30;;;;;;;2.33;1.30;;;18.30;1.00;;;;;;8244712;28;20198;-62
2023/09/03 17:01:31;;;;;;;2.33;1.40;;;18.20;1.00;;;;;;8240016;28;20195;-64
2023/09/03 17:05:32;;;;;;;2.90;1.80;;;18.10;1.00;;;;;;8255525;28;20286;-64
2023/09/03 17:09:33;;;;;;;3.33;1.47;;;18.00;1.00;;;;;;8240439;28;20313;-63
2023/09/03 17:13:33;;;;;;;3.60;1.80;;;17.90;1.00;;;;;;8255516;28;20242;-63
2023/09/03 17:17:37;;;;;;;2.40;1.93;;;17.80;1.00;;;;;;8252260;28;20607;-61
2023/09/03 17:21:38;;;;;;;4.73;2.40;;;17.60;1.00;;;;;;8256278;28;20186;-60
2023/09/03 17:25:39;;;;;;;3.03;2.20;;;17.40;1.00;;;;;;8255717;28;20214;-60
2023/09/03 17:29:40;;;;;;;1.70;1.60;;;17.30;1.00;;;;;;8238255;28;20219;-64
2023/09/03 17:33:41;;;;;;;3.87;1.50;;;17.20;1.00;;;;;;8252124;28;20215;-60
2023/09/03 17:37:41;;;;;;;5.60;1.60;;;17.00;1.00;;;;;;8240330;28;20195;-61
2023/09/03 17:41:43;;;;;;;3.23;1.30;;;16.90;1.00;;;;;;8245230;28;20230;-60
2023/09/03 17:45:44;;;;;;;2.00;1.70;;;16.80;1.00;;;;;;8241675;28;20275;-61
2023/09/03 17:49:45;;;;;;;2.07;1.50;;;16.70;1.00;;;;;;8239466;28;20607;-60
2023/09/03 17:53:47;;;;;;;4.63;1.90;;;16.60;17.60;;;;;;8255084;28;20225;-61
2023/09/03 17:57:48;;;;;;;3.77;2.70;;;16.40;43.20;;;;;;8258370;28;20184;-60
2023/09/03 18:01:49;;;;;;;4.40;2.87;;;16.40;62.30;;;;;;8244611;28;20203;-59
2023/09/03 18:05:52;;;;;;;6.73;3.60;;;16.30;81.20;;;;;;8253691;28;20199;-59
2023/09/03 18:09:53;;;;;;;5.50;3.57;;;16.20;99.90;;;;;;8233556;28;20334;-58
2023/09/03 18:13:54;;;;;;;6.43;3.57;;;16.10;99.90;;;;;;8244585;28;20219;-60
2023/09/03 18:17:55;;;;;;;7.60;4.10;;;16.00;99.90;;;;;;8242178;28;20237;-60
2023/09/03 18:21:56;;;;;;;4.80;3.23;;;15.90;99.90;;;;;;8239383;28;20205;-60
2023/09/03 18:25:57;;;;;;;3.53;3.00;;;15.80;99.90;;;;;;8255990;28;20363;-60
2023/09/03 18:29:58;;;;;;;3.57;3.03;;;15.60;99.90;;;;;;8251928;28;20260;-61
2023/09/03 18:33:59;;;;;;;3.13;2.63;;;15.50;99.90;;;;;;8257030;28;20421;-60
2023/09/03 18:38:00;;;;;;;3.37;3.07;;;15.50;99.90;;;;;;8260277;28;20188;-60
2023/09/03 18:42:01;;;;;;;2.77;2.50;;;15.40;99.90;;;;;;8260397;28;20210;-62
2023/09/03 18:46:02;;;;;;;3.03;2.40;;;15.30;99.90;;;;;;8248038;28;20195;-60
2023/09/03 18:50:03;;;;;;;2.50;2.20;;;15.10;99.90;;;;;;8260163;28;20196;-58
2023/09/03 18:54:04;;;;;;;2.37;2.10;;;15.00;99.90;;;;;;8241887;28;20238;-59
2023/09/03 18:58:06;;;;;;;2.20;1.93;;;14.90;99.90;;;;;;8249127;28;20214;-61
2023/09/03 19:02:07;;;;;;;2.53;1.90;;;14.80;1.00;;;;;;8249962;28;20206;-63
2023/09/03 19:06:10;;;;;;;2.20;1.70;;;14.70;1.00;;;;;;8246665;28;20264;-62
2023/09/03 19:10:10;;;;;;;2.23;1.87;;;14.60;1.00;;;;;;8248122;28;20212;-60
2023/09/03 19:14:13;;;;;;;1.97;1.80;;;14.50;1.00;;;;;;8248054;28;20222;-60
2023/09/03 19:18:14;;;;;;;2.90;1.90;;;14.40;88.70;;;;;;8236558;28;20203;-60
2023/09/03 19:22:15;;;;;;;2.40;2.00;;;14.20;99.90;;;;;;8246334;28;20192;-61
2023/09/03 19:26:16;;;;;;;1.93;1.73;;;14.20;99.90;;;;;;8244186;28;20265;-62
2023/09/03 19:30:17;;;;;;;1.87;1.77;;;14.10;99.90;;;;;;8259834;28;20199;-59
2023/09/03 19:34:18;;;;;;;2.10;1.90;;;14.10;1.00;;;;;;8255820;28;20215;-60
2023/09/03 19:38:18;;;;;;;1.83;1.60;;;14.10;1.00;;;;;;8253400;28;20737;-61
2023/09/03 19:42:19;;;;;;;1.90;1.80;;;14.00;23.90;;;;;;8254476;28;20195;-59
2023/09/03 19:46:20;;;;;;;2.50;2.30;;;14.10;99.90;;;;;;8257124;28;20191;-60
2023/09/03 19:50:21;;;;;;;2.40;1.97;;;14.10;99.90;;;;;;8255848;28;20195;-60
2023/09/03 19:54:22;;;;;;;2.03;1.83;;;14.20;99.90;;;;;;8254829;28;20438;-58
2023/09/03 19:58:23;;;;;;;2.27;1.90;;;14.20;99.90;;;;;;8242500;28;20234;-60
2023/09/03 20:02:24;;;;;;;2.23;1.73;;;14.20;99.90;;;;;;8243981;28;20302;-59
2023/09/03 20:06:25;;;;;;;2.30;2.10;;;14.30;99.90;;;;;;8255695;28;20196;-61
2023/09/03 20:10:26;;;;;;;2.60;2.40;;;14.30;99.90;;;;;;8241857;28;20226;-59
2023/09/03 20:14:27;;;;;;;2.47;2.00;;;14.40;99.90;;;;;;8253216;28;20306;-59
2023/09/03 20:18:28;;;;;;;3.10;1.97;;;14.40;1.00;;;;;;8238071;28;20199;-60
2023/09/03 20:22:29;;;;;;;3.30;2.23;;;14.40;1.00;;;;;;8248141;28;20225;-60
2023/09/03 20:26:30;;;;;;;2.47;2.20;;;14.40;15.60;;;;;;8258563;28;20198;-62
2023/09/03 20:30:31;;;;;;;2.20;2.00;;;14.50;99.90;;;;;;8256733;28;20200;-62
2023/09/03 20:34:32;;;;;;;2.43;2.10;;;14.50;99.90;;;;;;8257792;28;20272;-60
2023/09/03 20:38:32;;;;;;;2.40;2.20;;;14.50;99.90;;;;;;8246805;28;20187;-60
2023/09/03 20:42:34;;;;;;;3.47;2.80;;;14.50;99.90;;;;;;8247515;28;20202;-59
2023/09/03 20:46:35;;;;;;;2.50;2.30;;;14.50;99.90;;;;;;8241253;28;20223;-60
2023/09/03 20:50:39;;;;;;;2.73;2.53;;;14.50;1.00;;;;;;8247393;28;20192;-60
2023/09/03 20:54:40;;;;;;;2.70;2.40;;;14.50;99.90;;;;;;8249472;28;20266;-62
2023/09/03 20:58:41;;;;;;;4.27;2.20;;;14.60;1.00;;;;;;8257613;28;20391;-60